Time;durP1;ratioP1;P1;durP2;ratioP2;P2;SDS_P1;SDS_P2;PMS_P1;PMS_P2;Temp;Humidity;BMP_temperature;BMP_pressure;BME280_temperature;BME280_humidity;BME280_pressure;Samples;Min_cycle;Max_cycle;Signal;HPM_P1;HPM_P2
2024/01/08 06:44:38;;;;;;;7.70;4.07;;;;;;;;;;10546934;28;20884;-82
2024/01/08 06:49:39;;;;;;;;;;;;;;;;;;10559250;28;20044;-82
2024/01/08 06:54:40;;;;;;;4.73;3.03;;;;;;;;;;10512922;28;20302;-82
2024/01/08 06:59:41;;;;;;;4.32;2.50;;;;;;;;;;10510178;28;20519;-82
2024/01/08 07:04:42;;;;;;;5.60;4.57;;;;;;;;;;10511940;28;20534;-82
2024/01/08 07:09:44;;;;;;;4.55;3.55;;;;;;;;;;10502189;28;20047;-82
2024/01/08 07:14:50;;;;;;;4.95;3.63;;;;;;;;;;10501121;28;20056;-82
2024/01/08 07:19:51;;;;;;;4.93;3.17;;;;;;;;;;10499563;28;20078;-82
2024/01/08 07:24:52;;;;;;;5.15;3.47;;;;;;;;;;10498566;28;20619;-82
2024/01/08 07:29:54;;;;;;;5.57;3.97;;;;;;;;;;10496841;28;20194;-82
2024/01/08 07:34:55;;;;;;;4.50;2.90;;;;;;;;;;10495442;28;20068;-81
2024/01/08 07:39:56;;;;;;;5.05;3.60;;;;;;;;;;10498951;28;20036;-82
2024/01/08 07:44:58;;;;;;;4.43;2.72;;;;;;;;;;10497063;28;20033;-82
2024/01/08 07:50:08;;;;;;;10.63;7.05;;;;;;;;;;10482099;28;20056;-82
2024/01/08 07:55:20;;;;;;;6.00;4.85;;;;;;;;;;10482517;28;20025;-82
2024/01/08 08:00:22;;;;;;;;;;;;;;;;;;10477081;28;20035;-81
2024/01/08 08:05:23;;;;;;;3.33;2.40;;;;;;;;;;10473221;28;19904;-80
2024/01/08 08:10:24;;;;;;;5.95;4.45;;;;;;;;;;10467452;28;20523;-80
2024/01/08 08:15:26;;;;;;;4.50;3.30;;;;;;;;;;10468191;28;20033;-80
2024/01/08 08:20:29;;;;;;;4.97;3.60;;;;;;;;;;10469762;28;20500;-84
2024/01/08 08:25:35;;;;;;;5.90;3.53;;;;;;;;;;10471960;28;20037;-84
2024/01/08 08:31:20;;;;;;;;;;;;;;;;;;10470337;28;20009;-86
2024/01/08 08:36:39;;;;;;;6.40;5.07;;;;;;;;;;10458526;28;19908;-85
2024/01/08 08:42:14;;;;;;;5.50;3.90;;;;;;;;;;10466933;28;20136;-85
2024/01/08 08:47:50;;;;;;;4.90;3.63;;;;;;;;;;10467036;28;20041;-86
2024/01/08 08:53:08;;;;;;;5.05;3.65;;;;;;;;;;10467787;28;20049;-85
2024/01/08 08:58:10;;;;;;;5.65;3.42;;;;;;;;;;10469770;28;20427;-85
2024/01/08 09:03:13;;;;;;;4.70;3.53;;;;;;;;;;10467835;28;20031;-85
2024/01/08 09:08:32;;;;;;;4.35;3.30;;;;;;;;;;10465970;28;20116;-85
2024/01/08 09:14:14;;;;;;;3.00;2.00;;;;;;;;;;10470267;28;20029;-84
2024/01/08 09:19:15;;;;;;;3.30;2.35;;;;;;;;;;10476945;28;20029;-85
2024/01/08 09:24:18;;;;;;;3.95;2.17;;;;;;;;;;10470011;28;20021;-85
2024/01/08 09:29:19;;;;;;;4.00;2.80;;;;;;;;;;10469490;28;20029;-85
2024/01/08 09:34:21;;;;;;;3.80;2.85;;;;;;;;;;10467235;28;20077;-86
2024/01/08 09:39:24;;;;;;;4.63;3.00;;;;;;;;;;10468926;28;20028;-86
2024/01/08 09:44:25;;;;;;;4.28;2.38;;;;;;;;;;10491173;28;20061;-84
2024/01/08 09:49:36;;;;;;;4.68;3.40;;;;;;;;;;10483687;28;20464;-86
2024/01/08 09:54:43;;;;;;;3.73;2.57;;;;;;;;;;10468910;28;20063;-85
2024/01/08 09:59:44;;;;;;;4.03;2.38;;;;;;;;;;10475695;28;20037;-84
2024/01/08 10:04:45;;;;;;;5.43;2.95;;;;;;;;;;10463450;28;20029;-84
2024/01/08 10:09:46;;;;;;;5.15;3.05;;;;;;;;;;10476774;28;20021;-86
2024/01/08 10:15:13;;;;;;;5.47;2.28;;;;;;;;;;10468703;28;20033;-84
2024/01/08 10:26:33;;;;;;;4.60;2.50;;;;;;;;;;10266810;28;20031;-85
2024/01/08 10:32:01;;;;;;;4.40;2.35;;;;;;;;;;10307791;28;20030;-83
2024/01/08 10:37:10;;;;;;;5.70;3.20;;;;;;;;;;10290136;28;20031;-84
2024/01/08 10:42:40;;;;;;;6.18;2.50;;;;;;;;;;10341924;28;20033;-86
2024/01/08 11:10:30;;;;;;;5.95;3.15;;;;;;;;;;10479607;28;20048;-83
2024/01/08 11:21:27;;;;;;;5.72;3.30;;;;;;;;;;10499516;28;20021;-84
2024/01/08 11:26:49;;;;;;;4.63;2.45;;;;;;;;;;10485188;28;20013;-85
2024/01/08 11:32:09;;;;;;;10.55;3.00;;;;;;;;;;10478182;28;20025;-85
2024/01/08 11:42:51;;;;;;;8.25;3.20;;;;;;;;;;10496172;28;20099;-83
2024/01/08 11:47:52;;;;;;;;;;;;;;;;;;10483903;28;20029;-82
2024/01/08 11:53:01;;;;;;;4.77;2.80;;;;;;;;;;10487003;28;19909;-84
2024/01/08 12:31:58;;;;;;;4.00;2.30;;;;;;;;;;10483386;28;20036;-84
2024/01/08 12:48:50;;;;;;;5.45;2.30;;;;;;;;;;10480551;28;20029;-86
2024/01/08 12:53:51;;;;;;;3.72;2.35;;;;;;;;;;10558618;22;20036;-82
2024/01/08 12:58:52;;;;;;;8.00;2.38;;;;;;;;;;10510168;28;20115;-81
2024/01/08 13:03:53;;;;;;;6.57;3.05;;;;;;;;;;10509775;28;20095;-82
2024/01/08 13:08:54;;;;;;;5.13;2.28;;;;;;;;;;10509333;28;20116;-79
2024/01/08 13:13:56;;;;;;;7.45;2.30;;;;;;;;;;10508382;28;20545;-80
2024/01/08 13:18:57;;;;;;;5.10;2.40;;;;;;;;;;10509494;28;20017;-81
2024/01/08 13:23:58;;;;;;;3.92;2.17;;;;;;;;;;10507722;28;20032;-83
2024/01/08 13:28:59;;;;;;;5.00;2.78;;;;;;;;;;10508534;28;20107;-82
2024/01/08 13:34:06;;;;;;;5.85;3.25;;;;;;;;;;10507824;28;20078;-83
2024/01/08 13:39:10;;;;;;;6.40;2.45;;;;;;;;;;10514169;28;20024;-83
2024/01/08 13:44:11;;;;;;;4.40;2.22;;;;;;;;;;10508133;28;20032;-80
2024/01/08 13:49:12;;;;;;;4.60;2.90;;;;;;;;;;10506574;28;20131;-81
2024/01/08 13:54:13;;;;;;;3.97;2.20;;;;;;;;;;10507659;28;20131;-81
2024/01/08 13:59:14;;;;;;;12.93;3.95;;;;;;;;;;10507607;28;20115;-81
2024/01/08 14:04:15;;;;;;;4.47;2.58;;;;;;;;;;10508666;28;20508;-81
2024/01/08 14:09:16;;;;;;;4.22;2.97;;;;;;;;;;10508480;28;20055;-81
2024/01/08 14:14:17;;;;;;;5.57;2.25;;;;;;;;;;10518706;28;20023;-80
2024/01/08 14:19:18;;;;;;;5.07;3.15;;;;;;;;;;10548478;28;20021;-80
2024/01/08 14:24:19;;;;;;;4.07;2.42;;;;;;;;;;10513581;28;20400;-81
2024/01/08 14:29:21;;;;;;;5.68;2.90;;;;;;;;;;10527742;28;20017;-79
2024/01/08 14:34:24;;;;;;;;;;;;;;;;;;10517780;28;20128;-82
2024/01/08 14:39:28;;;;;;;7.95;3.33;;;;;;;;;;10510303;28;19908;-82
2024/01/08 14:44:30;;;;;;;4.13;2.33;;;;;;;;;;10509127;28;20031;-82
2024/01/08 14:49:31;;;;;;;6.15;2.65;;;;;;;;;;10503503;28;20494;-81
2024/01/08 14:54:32;;;;;;;7.70;2.50;;;;;;;;;;10503523;28;20045;-81
2024/01/08 14:59:35;;;;;;;3.50;2.17;;;;;;;;;;10517595;28;20506;-82
2024/01/08 15:04:40;;;;;;;6.63;3.08;;;;;;;;;;10539028;28;20009;-81
2024/01/08 15:09:41;;;;;;;5.57;2.40;;;;;;;;;;10521366;28;20056;-83
2024/01/08 15:14:42;;;;;;;6.03;3.40;;;;;;;;;;10518336;28;20027;-83
2024/01/08 15:19:43;;;;;;;5.80;2.60;;;;;;;;;;10519223;28;20028;-83
2024/01/08 15:24:44;;;;;;;4.57;2.45;;;;;;;;;;10521554;28;20158;-81
2024/01/08 15:29:45;;;;;;;6.78;2.85;;;;;;;;;;10524652;28;20029;-83
2024/01/08 15:34:46;;;;;;;6.95;2.70;;;;;;;;;;10527591;28;20077;-82
2024/01/08 15:39:47;;;;;;;6.75;3.20;;;;;;;;;;10530335;28;20397;-81
2024/01/08 15:44:48;;;;;;;6.78;3.92;;;;;;;;;;10545471;28;20028;-78
2024/01/08 15:49:49;;;;;;;5.18;3.17;;;;;;;;;;10546991;28;20040;-82
2024/01/08 15:54:51;;;;;;;4.38;3.00;;;;;;;;;;10540728;28;20044;-79
2024/01/08 15:59:52;;;;;;;5.88;2.65;;;;;;;;;;10521328;28;20024;-81
2024/01/08 16:04:53;;;;;;;5.20;2.50;;;;;;;;;;10512056;28;20035;-82
2024/01/08 16:09:54;;;;;;;5.35;3.05;;;;;;;;;;10513849;28;20025;-81
2024/01/08 16:14:55;;;;;;;5.22;2.72;;;;;;;;;;10513724;28;20119;-81
2024/01/08 16:19:56;;;;;;;5.13;3.15;;;;;;;;;;10512278;28;20032;-82
2024/01/08 16:24:58;;;;;;;3.90;2.58;;;;;;;;;;10512789;28;20017;-80
2024/01/08 16:29:59;;;;;;;;;;;;;;;;;;10512987;28;20039;-82
2024/01/08 16:35:01;;;;;;;5.70;3.58;;;;;;;;;;10513785;28;19905;-82
2024/01/08 16:40:02;;;;;;;;;;;;;;;;;;10514530;28;20044;-82
2024/01/08 16:45:03;;;;;;;4.72;3.40;;;;;;;;;;10514305;28;19908;-82
2024/01/08 16:50:05;;;;;;;7.07;4.22;;;;;;;;;;10513636;28;20039;-83
2024/01/08 16:55:06;;;;;;;5.93;4.20;;;;;;;;;;10512997;28;20579;-82
2024/01/08 17:00:07;;;;;;;5.30;2.97;;;;;;;;;;10512119;28;20119;-81
2024/01/08 17:05:08;;;;;;;3.58;2.63;;;;;;;;;;10515061;28;20025;-81
2024/01/08 17:10:09;;;;;;;;;;;;;;;;;;10533212;28;20028;-81
2024/01/08 17:15:10;;;;;;;4.03;2.60;;;;;;;;;;10524369;28;19911;-82
2024/01/08 17:20:12;;;;;;;5.15;2.35;;;;;;;;;;10514695;28;20060;-86
2024/01/08 17:25:13;;;;;;;3.92;2.67;;;;;;;;;;10507877;28;20047;-83
2024/01/08 17:30:14;;;;;;;;;;;;;;;;;;10489947;28;20037;-84
2024/01/08 17:35:15;;;;;;;5.80;3.40;;;;;;;;;;10505392;28;19904;-85
2024/01/08 17:40:17;;;;;;;4.72;3.00;;;;;;;;;;10507490;28;20032;-85
2024/01/08 17:45:18;;;;;;;4.47;3.00;;;;;;;;;;10504646;28;20025;-85
2024/01/08 17:50:20;;;;;;;3.95;2.50;;;;;;;;;;10506212;28;20059;-86
2024/01/08 17:55:21;;;;;;;3.70;2.83;;;;;;;;;;10509659;28;20040;-86
2024/01/08 18:00:22;;;;;;;4.88;3.10;;;;;;;;;;10502861;28;20392;-87
2024/01/08 18:05:23;;;;;;;6.32;3.50;;;;;;;;;;10508617;28;20033;-86
2024/01/08 18:10:24;;;;;;;4.05;3.20;;;;;;;;;;10515095;28;20029;-86
2024/01/08 18:15:27;;;;;;;4.95;3.05;;;;;;;;;;10517369;28;20033;-85
2024/01/08 18:20:29;;;;;;;4.07;2.38;;;;;;;;;;10527165;28;20032;-86
2024/01/08 18:25:30;;;;;;;5.18;3.17;;;;;;;;;;10515499;28;20142;-86
2024/01/08 18:30:31;;;;;;;4.65;3.22;;;;;;;;;;10516098;28;20562;-86
2024/01/08 18:35:32;;;;;;;6.57;3.28;;;;;;;;;;10524974;28;20028;-86
2024/01/08 18:40:33;;;;;;;3.85;2.83;;;;;;;;;;10529125;28;20036;-86
2024/01/08 18:45:34;;;;;;;3.72;2.50;;;;;;;;;;10512644;28;20106;-86
2024/01/08 18:50:35;;;;;;;4.80;3.33;;;;;;;;;;10513659;28;20075;-84
2024/01/08 18:55:38;;;;;;;5.05;3.45;;;;;;;;;;10507828;28;20388;-84
2024/01/08 19:00:39;;;;;;;3.88;3.03;;;;;;;;;;10508444;28;20024;-85
2024/01/08 19:05:40;;;;;;;5.80;2.70;;;;;;;;;;10508308;28;20017;-84
2024/01/08 19:10:41;;;;;;;4.95;3.50;;;;;;;;;;10509636;28;20032;-84
2024/01/08 19:15:42;;;;;;;4.15;3.03;;;;;;;;;;10510534;28;20039;-84
2024/01/08 19:20:43;;;;;;;;;;;;;;;;;;10510911;28;20039;-84
2024/01/08 19:25:44;;;;;;;3.80;2.60;;;;;;;;;;10510891;28;20018;-84
2024/01/08 19:30:45;;;;;;;4.80;2.92;;;;;;;;;;10537570;28;20033;-84
2024/01/08 19:35:47;;;;;;;4.97;2.83;;;;;;;;;;10514040;28;20350;-84
2024/01/08 19:40:48;;;;;;;4.40;2.78;;;;;;;;;;10508796;28;20024;-83
2024/01/08 19:45:50;;;;;;;;;;;;;;;;;;10512440;28;20017;-84
2024/01/08 19:50:51;;;;;;;4.40;2.90;;;;;;;;;;10523431;28;19911;-84
2024/01/08 19:55:52;;;;;;;5.65;3.33;;;;;;;;;;10552069;28;20025;-83
2024/01/08 20:00:53;;;;;;;5.30;2.80;;;;;;;;;;10538715;28;20031;-84
2024/01/08 20:05:54;;;;;;;5.07;2.90;;;;;;;;;;10513463;28;20027;-84
